sensor_id;sensor_type;location;lat;lon;timestamp;P1;durP1;ratioP1;P2;durP2;ratioP2
82805;SDS011;72558;51.000;-3.112;2023-12-20T00:00:34;21.9;;;3.3;;
82805;SDS011;72558;51.000;-3.112;2023-12-20T00:03:34;24.8;;;3.4;;
82805;SDS011;72558;51.000;-3.112;2023-12-20T00:06:34;21.1;;;3.8;;
82805;SDS011;72558;51.000;-3.112;2023-12-20T00:09:34;23.0;;;4.2;;
82805;SDS011;72558;51.000;-3.112;2023-12-20T00:12:34;23.6;;;3.3;;
82805;SDS011;72558;51.000;-3.112;2023-12-20T00:15:34;21.1;;;2.7;;
82805;SDS011;72558;51.000;-3.112;2023-12-20T00:18:33;20.4;;;2.6;;
82805;SDS011;72558;51.000;-3.112;2023-12-20T00:21:34;17.3;;;2.1;;
82805;SDS011;72558;51.000;-3.112;2023-12-20T00:24:34;21.7;;;2.4;;
82805;SDS011;72558;51.000;-3.112;2023-12-20T00:27:34;20.2;;;2.5;;
82805;SDS011;72558;51.000;-3.112;2023-12-20T00:30:33;19.1;;;3.0;;
82805;SDS011;72558;51.000;-3.112;2023-12-20T00:33:34;22.9;;;3.5;;
82805;SDS011;72558;51.000;-3.112;2023-12-20T00:36:33;15.0;;;2.3;;
82805;SDS011;72558;51.000;-3.112;2023-12-20T00:39:34;21.1;;;3.0;;
82805;SDS011;72558;51.000;-3.112;2023-12-20T00:42:33;19.6;;;2.7;;
82805;SDS011;72558;51.000;-3.112;2023-12-20T00:45:34;26.4;;;3.7;;
82805;SDS011;72558;51.000;-3.112;2023-12-20T00:48:34;24.9;;;4.9;;
82805;SDS011;72558;51.000;-3.112;2023-12-20T00:51:34;18.7;;;2.9;;
82805;SDS011;72558;51.000;-3.112;2023-12-20T00:54:34;20.9;;;2.9;;
82805;SDS011;72558;51.000;-3.112;2023-12-20T00:57:34;17.9;;;2.9;;
82805;SDS011;72558;51.000;-3.112;2023-12-20T01:00:33;17.8;;;2.4;;
82805;SDS011;72558;51.000;-3.112;2023-12-20T01:03:34;20.8;;;3.2;;
82805;SDS011;72558;51.000;-3.112;2023-12-20T01:06:34;23.7;;;4.5;;
82805;SDS011;72558;51.000;-3.112;2023-12-20T01:09:34;23.8;;;3.3;;
82805;SDS011;72558;51.000;-3.112;2023-12-20T01:12:33;22.3;;;3.9;;
82805;SDS011;72558;51.000;-3.112;2023-12-20T01:15:34;22.4;;;3.4;;
82805;SDS011;72558;51.000;-3.112;2023-12-20T01:18:34;21.7;;;3.1;;
82805;SDS011;72558;51.000;-3.112;2023-12-20T01:21:34;20.3;;;2.9;;
82805;SDS011;72558;51.000;-3.112;2023-12-20T01:24:34;19.8;;;2.2;;
82805;SDS011;72558;51.000;-3.112;2023-12-20T01:27:33;20.9;;;2.9;;
82805;SDS011;72558;51.000;-3.112;2023-12-20T01:30:34;16.9;;;2.0;;
82805;SDS011;72558;51.000;-3.112;2023-12-20T01:33:34;16.0;;;2.5;;
82805;SDS011;72558;51.000;-3.112;2023-12-20T01:36:34;18.2;;;2.0;;
82805;SDS011;72558;51.000;-3.112;2023-12-20T01:39:34;16.6;;;1.9;;
82805;SDS011;72558;51.000;-3.112;2023-12-20T01:42:34;19.0;;;2.0;;
82805;SDS011;72558;51.000;-3.112;2023-12-20T01:45:34;17.3;;;2.6;;
82805;SDS011;72558;51.000;-3.112;2023-12-20T01:48:34;20.7;;;2.3;;
82805;SDS011;72558;51.000;-3.112;2023-12-20T01:51:34;18.3;;;2.5;;
82805;SDS011;72558;51.000;-3.112;2023-12-20T01:54:33;20.6;;;2.7;;
82805;SDS011;72558;51.000;-3.112;2023-12-20T01:57:34;16.9;;;2.6;;
82805;SDS011;72558;51.000;-3.112;2023-12-20T02:00:34;17.5;;;2.2;;
82805;SDS011;72558;51.000;-3.112;2023-12-20T02:03:34;19.9;;;2.7;;
82805;SDS011;72558;51.000;-3.112;2023-12-20T02:06:33;19.7;;;2.1;;
82805;SDS011;72558;51.000;-3.112;2023-12-20T02:09:34;14.1;;;1.8;;
82805;SDS011;72558;51.000;-3.112;2023-12-20T02:12:33;17.0;;;2.3;;
82805;SDS011;72558;51.000;-3.112;2023-12-20T02:15:34;16.9;;;2.1;;
82805;SDS011;72558;51.000;-3.112;2023-12-20T02:18:33;17.4;;;2.0;;
82805;SDS011;72558;51.000;-3.112;2023-12-20T02:21:34;20.7;;;2.3;;
82805;SDS011;72558;51.000;-3.112;2023-12-20T02:24:34;17.2;;;2.6;;
82805;SDS011;72558;51.000;-3.112;2023-12-20T02:27:34;18.6;;;3.3;;
82805;SDS011;72558;51.000;-3.112;2023-12-20T02:30:34;21.3;;;3.9;;
82805;SDS011;72558;51.000;-3.112;2023-12-20T02:33:33;25.1;;;3.9;;
82805;SDS011;72558;51.000;-3.112;2023-12-20T02:36:34;18.7;;;2.2;;
82805;SDS011;72558;51.000;-3.112;2023-12-20T02:39:33;21.3;;;2.5;;
82805;SDS011;72558;51.000;-3.112;2023-12-20T02:42:34;18.5;;;2.2;;
82805;SDS011;72558;51.000;-3.112;2023-12-20T02:45:33;16.0;;;2.4;;
82805;SDS011;72558;51.000;-3.112;2023-12-20T02:48:34;17.3;;;2.1;;
82805;SDS011;72558;51.000;-3.112;2023-12-20T02:51:33;18.2;;;2.2;;
82805;SDS011;72558;51.000;-3.112;2023-12-20T02:54:34;16.0;;;2.5;;
82805;SDS011;72558;51.000;-3.112;2023-12-20T02:57:33;17.2;;;1.7;;
82805;SDS011;72558;51.000;-3.112;2023-12-20T03:00:34;20.1;;;2.2;;
82805;SDS011;72558;51.000;-3.112;2023-12-20T03:03:33;18.3;;;2.0;;
82805;SDS011;72558;51.000;-3.112;2023-12-20T03:06:34;19.8;;;2.8;;
82805;SDS011;72558;51.000;-3.112;2023-12-20T03:09:34;20.3;;;2.5;;
82805;SDS011;72558;51.000;-3.112;2023-12-20T03:12:34;15.7;;;2.0;;
82805;SDS011;72558;51.000;-3.112;2023-12-20T03:15:34;16.5;;;1.9;;
82805;SDS011;72558;51.000;-3.112;2023-12-20T03:18:34;20.3;;;2.3;;
82805;SDS011;72558;51.000;-3.112;2023-12-20T03:21:34;16.5;;;1.8;;
82805;SDS011;72558;51.000;-3.112;2023-12-20T03:24:34;19.6;;;2.4;;
82805;SDS011;72558;51.000;-3.112;2023-12-20T03:27:34;16.9;;;2.5;;
82805;SDS011;72558;51.000;-3.112;2023-12-20T03:30:33;13.8;;;2.1;;
82805;SDS011;72558;51.000;-3.112;2023-12-20T03:33:34;18.4;;;1.9;;
82805;SDS011;72558;51.000;-3.112;2023-12-20T03:36:34;18.4;;;2.3;;
82805;SDS011;72558;51.000;-3.112;2023-12-20T03:39:34;17.2;;;2.3;;
82805;SDS011;72558;51.000;-3.112;2023-12-20T03:42:34;15.1;;;2.0;;
82805;SDS011;72558;51.000;-3.112;2023-12-20T03:45:33;17.0;;;1.9;;
82805;SDS011;72558;51.000;-3.112;2023-12-20T03:48:34;21.1;;;2.1;;
82805;SDS011;72558;51.000;-3.112;2023-12-20T03:51:34;17.6;;;2.9;;
82805;SDS011;72558;51.000;-3.112;2023-12-20T03:54:34;16.7;;;2.1;;
82805;SDS011;72558;51.000;-3.112;2023-12-20T03:57:34;18.3;;;2.3;;
82805;SDS011;72558;51.000;-3.112;2023-12-20T04:00:33;21.1;;;2.2;;
82805;SDS011;72558;51.000;-3.112;2023-12-20T04:03:34;16.6;;;2.5;;
82805;SDS011;72558;51.000;-3.112;2023-12-20T04:06:33;19.0;;;2.2;;
82805;SDS011;72558;51.000;-3.112;2023-12-20T04:09:34;18.3;;;2.6;;
82805;SDS011;72558;51.000;-3.112;2023-12-20T04:12:33;22.4;;;2.8;;
82805;SDS011;72558;51.000;-3.112;2023-12-20T04:15:34;19.8;;;2.1;;
82805;SDS011;72558;51.000;-3.112;2023-12-20T04:18:34;16.1;;;1.9;;
82805;SDS011;72558;51.000;-3.112;2023-12-20T04:21:34;18.3;;;2.5;;
82805;SDS011;72558;51.000;-3.112;2023-12-20T04:24:34;17.8;;;2.3;;
82805;SDS011;72558;51.000;-3.112;2023-12-20T04:27:34;15.9;;;2.2;;
82805;SDS011;72558;51.000;-3.112;2023-12-20T04:30:33;19.5;;;2.3;;
82805;SDS011;72558;51.000;-3.112;2023-12-20T04:33:34;22.2;;;3.1;;
82805;SDS011;72558;51.000;-3.112;2023-12-20T04:36:33;24.5;;;2.5;;
82805;SDS011;72558;51.000;-3.112;2023-12-20T04:39:34;17.5;;;2.4;;
82805;SDS011;72558;51.000;-3.112;2023-12-20T04:42:34;24.2;;;2.5;;
82805;SDS011;72558;51.000;-3.112;2023-12-20T04:45:34;20.5;;;3.0;;
82805;SDS011;72558;51.000;-3.112;2023-12-20T04:48:34;18.9;;;2.9;;
82805;SDS011;72558;51.000;-3.112;2023-12-20T04:51:34;18.3;;;2.4;;
82805;SDS011;72558;51.000;-3.112;2023-12-20T04:54:34;15.4;;;2.5;;
82805;SDS011;72558;51.000;-3.112;2023-12-20T04:57:34;19.8;;;3.0;;
82805;SDS011;72558;51.000;-3.112;2023-12-20T05:00:34;20.7;;;3.0;;
82805;SDS011;72558;51.000;-3.112;2023-12-20T05:03:34;22.0;;;3.1;;
82805;SDS011;72558;51.000;-3.112;2023-12-20T05:06:34;22.8;;;3.8;;
82805;SDS011;72558;51.000;-3.112;2023-12-20T05:09:34;22.8;;;2.4;;
82805;SDS011;72558;51.000;-3.112;2023-12-20T05:12:34;17.7;;;2.2;;
82805;SDS011;72558;51.000;-3.112;2023-12-20T05:15:34;21.4;;;3.1;;
82805;SDS011;72558;51.000;-3.112;2023-12-20T05:18:33;21.8;;;2.7;;
82805;SDS011;72558;51.000;-3.112;2023-12-20T05:21:36;18.6;;;3.1;;
82805;SDS011;72558;51.000;-3.112;2023-12-20T05:24:34;18.0;;;2.2;;
82805;SDS011;72558;51.000;-3.112;2023-12-20T05:27:34;15.8;;;1.7;;
82805;SDS011;72558;51.000;-3.112;2023-12-20T05:30:34;16.1;;;2.4;;
82805;SDS011;72558;51.000;-3.112;2023-12-20T05:33:34;16.2;;;1.7;;
82805;SDS011;72558;51.000;-3.112;2023-12-20T05:36:36;11.9;;;1.5;;
82805;SDS011;72558;51.000;-3.112;2023-12-20T05:39:34;12.7;;;1.7;;
82805;SDS011;72558;51.000;-3.112;2023-12-20T05:42:33;10.4;;;1.6;;
82805;SDS011;72558;51.000;-3.112;2023-12-20T05:45:34;11.9;;;1.9;;
82805;SDS011;72558;51.000;-3.112;2023-12-20T05:48:34;10.7;;;1.6;;
82805;SDS011;72558;51.000;-3.112;2023-12-20T05:51:33;12.5;;;1.4;;
82805;SDS011;72558;51.000;-3.112;2023-12-20T05:54:34;11.8;;;1.6;;
82805;SDS011;72558;51.000;-3.112;2023-12-20T05:57:33;10.7;;;1.6;;
82805;SDS011;72558;51.000;-3.112;2023-12-20T06:00:33;15.6;;;1.5;;
82805;SDS011;72558;51.000;-3.112;2023-12-20T06:03:34;14.7;;;2.0;;
82805;SDS011;72558;51.000;-3.112;2023-12-20T06:06:34;12.0;;;2.0;;
82805;SDS011;72558;51.000;-3.112;2023-12-20T06:09:34;12.9;;;2.0;;
82805;SDS011;72558;51.000;-3.112;2023-12-20T06:12:33;12.3;;;1.4;;
82805;SDS011;72558;51.000;-3.112;2023-12-20T06:15:34;11.4;;;1.6;;
82805;SDS011;72558;51.000;-3.112;2023-12-20T06:18:33;13.3;;;1.8;;
82805;SDS011;72558;51.000;-3.112;2023-12-20T06:21:33;9.7;;;1.8;;
82805;SDS011;72558;51.000;-3.112;2023-12-20T06:24:34;13.8;;;1.9;;
82805;SDS011;72558;51.000;-3.112;2023-12-20T06:27:34;15.4;;;1.9;;
82805;SDS011;72558;51.000;-3.112;2023-12-20T06:30:33;13.3;;;1.5;;
82805;SDS011;72558;51.000;-3.112;2023-12-20T06:33:34;14.6;;;2.1;;
82805;SDS011;72558;51.000;-3.112;2023-12-20T06:36:34;12.0;;;1.7;;
82805;SDS011;72558;51.000;-3.112;2023-12-20T06:39:33;11.6;;;1.6;;
82805;SDS011;72558;51.000;-3.112;2023-12-20T06:42:34;14.4;;;1.6;;
82805;SDS011;72558;51.000;-3.112;2023-12-20T06:45:34;13.4;;;1.6;;
82805;SDS011;72558;51.000;-3.112;2023-12-20T06:48:34;9.7;;;1.2;;
82805;SDS011;72558;51.000;-3.112;2023-12-20T06:51:34;10.4;;;1.3;;
82805;SDS011;72558;51.000;-3.112;2023-12-20T06:54:34;12.7;;;1.6;;
82805;SDS011;72558;51.000;-3.112;2023-12-20T06:57:34;12.9;;;1.5;;
82805;SDS011;72558;51.000;-3.112;2023-12-20T07:00:34;14.3;;;1.7;;
82805;SDS011;72558;51.000;-3.112;2023-12-20T07:03:34;14.9;;;2.0;;
82805;SDS011;72558;51.000;-3.112;2023-12-20T07:06:34;12.6;;;2.1;;
82805;SDS011;72558;51.000;-3.112;2023-12-20T07:09:34;11.3;;;1.4;;
82805;SDS011;72558;51.000;-3.112;2023-12-20T07:12:34;12.7;;;1.6;;
82805;SDS011;72558;51.000;-3.112;2023-12-20T07:15:34;15.4;;;2.1;;
82805;SDS011;72558;51.000;-3.112;2023-12-20T07:18:34;13.4;;;1.7;;
82805;SDS011;72558;51.000;-3.112;2023-12-20T07:21:34;13.9;;;1.9;;
82805;SDS011;72558;51.000;-3.112;2023-12-20T07:24:34;13.8;;;1.6;;
82805;SDS011;72558;51.000;-3.112;2023-12-20T07:27:34;10.6;;;1.7;;
82805;SDS011;72558;51.000;-3.112;2023-12-20T07:30:34;10.4;;;1.3;;
82805;SDS011;72558;51.000;-3.112;2023-12-20T07:33:34;13.7;;;1.3;;
82805;SDS011;72558;51.000;-3.112;2023-12-20T07:36:34;14.9;;;1.8;;
82805;SDS011;72558;51.000;-3.112;2023-12-20T07:39:33;12.3;;;1.7;;
82805;SDS011;72558;51.000;-3.112;2023-12-20T07:42:34;12.1;;;1.7;;
82805;SDS011;72558;51.000;-3.112;2023-12-20T07:45:33;14.4;;;1.8;;
82805;SDS011;72558;51.000;-3.112;2023-12-20T07:48:34;10.9;;;1.9;;
82805;SDS011;72558;51.000;-3.112;2023-12-20T07:51:34;12.4;;;1.5;;
82805;SDS011;72558;51.000;-3.112;2023-12-20T07:54:33;11.4;;;1.5;;
82805;SDS011;72558;51.000;-3.112;2023-12-20T07:57:34;11.6;;;1.6;;
82805;SDS011;72558;51.000;-3.112;2023-12-20T08:00:34;12.4;;;1.8;;
82805;SDS011;72558;51.000;-3.112;2023-12-20T08:03:34;15.6;;;2.0;;
82805;SDS011;72558;51.000;-3.112;2023-12-20T08:06:34;14.8;;;1.8;;
82805;SDS011;72558;51.000;-3.112;2023-12-20T08:09:34;13.5;;;2.0;;
82805;SDS011;72558;51.000;-3.112;2023-12-20T08:12:34;13.2;;;2.0;;
82805;SDS011;72558;51.000;-3.112;2023-12-20T08:15:34;14.5;;;2.1;;
82805;SDS011;72558;51.000;-3.112;2023-12-20T08:18:34;14.8;;;1.6;;
82805;SDS011;72558;51.000;-3.112;2023-12-20T08:21:34;13.0;;;1.6;;
82805;SDS011;72558;51.000;-3.112;2023-12-20T08:24:34;11.6;;;1.6;;
82805;SDS011;72558;51.000;-3.112;2023-12-20T08:27:34;11.9;;;1.8;;
82805;SDS011;72558;51.000;-3.112;2023-12-20T08:30:34;14.3;;;1.9;;
82805;SDS011;72558;51.000;-3.112;2023-12-20T08:33:33;10.1;;;1.7;;
82805;SDS011;72558;51.000;-3.112;2023-12-20T08:36:34;12.6;;;1.7;;
82805;SDS011;72558;51.000;-3.112;2023-12-20T08:39:33;12.3;;;1.2;;
82805;SDS011;72558;51.000;-3.112;2023-12-20T08:42:34;11.0;;;1.3;;
82805;SDS011;72558;51.000;-3.112;2023-12-20T08:45:34;11.9;;;1.1;;
82805;SDS011;72558;51.000;-3.112;2023-12-20T08:48:33;14.7;;;2.1;;
82805;SDS011;72558;51.000;-3.112;2023-12-20T08:51:33;10.9;;;2.0;;
82805;SDS011;72558;51.000;-3.112;2023-12-20T08:54:34;11.4;;;1.2;;
82805;SDS011;72558;51.000;-3.112;2023-12-20T08:57:33;12.6;;;1.1;;
82805;SDS011;72558;51.000;-3.112;2023-12-20T09:00:34;12.9;;;1.3;;
82805;SDS011;72558;51.000;-3.112;2023-12-20T09:03:33;10.6;;;1.2;;
82805;SDS011;72558;51.000;-3.112;2023-12-20T09:06:34;12.0;;;1.5;;
82805;SDS011;72558;51.000;-3.112;2023-12-20T09:09:33;10.8;;;1.6;;
82805;SDS011;72558;51.000;-3.112;2023-12-20T09:12:34;11.0;;;1.4;;
82805;SDS011;72558;51.000;-3.112;2023-12-20T09:15:33;11.3;;;1.4;;
82805;SDS011;72558;51.000;-3.112;2023-12-20T09:18:34;8.3;;;1.2;;
82805;SDS011;72558;51.000;-3.112;2023-12-20T09:21:33;10.8;;;1.2;;
82805;SDS011;72558;51.000;-3.112;2023-12-20T09:24:34;7.2;;;0.9;;
82805;SDS011;72558;51.000;-3.112;2023-12-20T09:27:34;8.9;;;1.3;;
82805;SDS011;72558;51.000;-3.112;2023-12-20T09:30:33;10.6;;;1.3;;
82805;SDS011;72558;51.000;-3.112;2023-12-20T09:33:34;10.2;;;1.0;;
82805;SDS011;72558;51.000;-3.112;2023-12-20T09:36:34;8.7;;;0.8;;
82805;SDS011;72558;51.000;-3.112;2023-12-20T09:39:34;7.4;;;1.2;;
82805;SDS011;72558;51.000;-3.112;2023-12-20T09:42:34;6.9;;;1.1;;
82805;SDS011;72558;51.000;-3.112;2023-12-20T09:45:34;9.8;;;0.9;;
82805;SDS011;72558;51.000;-3.112;2023-12-20T09:48:33;6.8;;;0.7;;
82805;SDS011;72558;51.000;-3.112;2023-12-20T09:51:33;6.5;;;0.8;;
82805;SDS011;72558;51.000;-3.112;2023-12-20T09:54:33;5.3;;;0.7;;
82805;SDS011;72558;51.000;-3.112;2023-12-20T09:57:34;6.8;;;1.0;;
82805;SDS011;72558;51.000;-3.112;2023-12-20T10:00:34;7.6;;;1.1;;
82805;SDS011;72558;51.000;-3.112;2023-12-20T10:03:34;5.6;;;0.7;;
82805;SDS011;72558;51.000;-3.112;2023-12-20T10:06:34;6.1;;;0.8;;
82805;SDS011;72558;51.000;-3.112;2023-12-20T10:09:34;7.6;;;0.9;;
82805;SDS011;72558;51.000;-3.112;2023-12-20T10:12:34;4.8;;;0.5;;
82805;SDS011;72558;51.000;-3.112;2023-12-20T10:15:34;6.2;;;1.0;;
82805;SDS011;72558;51.000;-3.112;2023-12-20T10:18:33;8.2;;;0.9;;
82805;SDS011;72558;51.000;-3.112;2023-12-20T10:21:34;6.6;;;0.9;;
82805;SDS011;72558;51.000;-3.112;2023-12-20T10:24:34;7.7;;;0.8;;
82805;SDS011;72558;51.000;-3.112;2023-12-20T10:27:34;7.5;;;1.3;;
82805;SDS011;72558;51.000;-3.112;2023-12-20T10:30:34;6.7;;;1.1;;
82805;SDS011;72558;51.000;-3.112;2023-12-20T10:33:33;5.6;;;0.6;;
82805;SDS011;72558;51.000;-3.112;2023-12-20T10:36:34;5.6;;;0.7;;
82805;SDS011;72558;51.000;-3.112;2023-12-20T10:39:33;6.3;;;0.8;;
82805;SDS011;72558;51.000;-3.112;2023-12-20T10:42:33;5.2;;;0.6;;
82805;SDS011;72558;51.000;-3.112;2023-12-20T10:45:34;5.2;;;0.8;;
82805;SDS011;72558;51.000;-3.112;2023-12-20T10:48:33;8.4;;;1.2;;
82805;SDS011;72558;51.000;-3.112;2023-12-20T10:51:33;5.8;;;0.8;;
82805;SDS011;72558;51.000;-3.112;2023-12-20T10:54:34;6.2;;;0.9;;
82805;SDS011;72558;51.000;-3.112;2023-12-20T10:57:34;6.0;;;0.6;;
82805;SDS011;72558;51.000;-3.112;2023-12-20T11:00:34;5.6;;;0.8;;
82805;SDS011;72558;51.000;-3.112;2023-12-20T11:03:34;7.5;;;0.9;;
82805;SDS011;72558;51.000;-3.112;2023-12-20T11:06:34;7.0;;;0.9;;
82805;SDS011;72558;51.000;-3.112;2023-12-20T11:09:34;6.5;;;1.0;;
82805;SDS011;72558;51.000;-3.112;2023-12-20T11:12:34;7.5;;;0.9;;
82805;SDS011;72558;51.000;-3.112;2023-12-20T11:15:33;6.9;;;0.8;;
82805;SDS011;72558;51.000;-3.112;2023-12-20T11:18:34;6.3;;;1.1;;
82805;SDS011;72558;51.000;-3.112;2023-12-20T11:21:33;4.9;;;0.5;;
82805;SDS011;72558;51.000;-3.112;2023-12-20T11:24:34;5.6;;;0.5;;
82805;SDS011;72558;51.000;-3.112;2023-12-20T11:27:34;5.4;;;0.8;;
82805;SDS011;72558;51.000;-3.112;2023-12-20T11:30:34;6.1;;;1.1;;
82805;SDS011;72558;51.000;-3.112;2023-12-20T11:33:33;7.5;;;0.9;;
82805;SDS011;72558;51.000;-3.112;2023-12-20T11:36:34;8.8;;;0.9;;
82805;SDS011;72558;51.000;-3.112;2023-12-20T11:39:34;7.1;;;1.2;;
82805;SDS011;72558;51.000;-3.112;2023-12-20T11:42:33;5.7;;;0.9;;
82805;SDS011;72558;51.000;-3.112;2023-12-20T11:45:33;6.8;;;0.6;;
82805;SDS011;72558;51.000;-3.112;2023-12-20T11:48:33;7.9;;;0.9;;
82805;SDS011;72558;51.000;-3.112;2023-12-20T11:51:34;6.9;;;1.0;;
82805;SDS011;72558;51.000;-3.112;2023-12-20T11:54:33;5.7;;;0.6;;
82805;SDS011;72558;51.000;-3.112;2023-12-20T11:57:34;8.9;;;0.8;;
82805;SDS011;72558;51.000;-3.112;2023-12-20T12:00:34;8.4;;;1.2;;
82805;SDS011;72558;51.000;-3.112;2023-12-20T12:03:34;5.7;;;0.6;;
82805;SDS011;72558;51.000;-3.112;2023-12-20T12:06:34;6.2;;;0.8;;
82805;SDS011;72558;51.000;-3.112;2023-12-20T12:09:33;6.2;;;0.6;;
82805;SDS011;72558;51.000;-3.112;2023-12-20T12:12:34;5.6;;;1.0;;
82805;SDS011;72558;51.000;-3.112;2023-12-20T12:15:33;6.3;;;0.9;;
82805;SDS011;72558;51.000;-3.112;2023-12-20T12:18:34;7.8;;;1.4;;
82805;SDS011;72558;51.000;-3.112;2023-12-20T12:21:34;10.3;;;1.6;;
82805;SDS011;72558;51.000;-3.112;2023-12-20T12:24:34;8.1;;;1.1;;
82805;SDS011;72558;51.000;-3.112;2023-12-20T12:27:33;5.9;;;0.7;;
82805;SDS011;72558;51.000;-3.112;2023-12-20T12:30:34;9.8;;;1.5;;
82805;SDS011;72558;51.000;-3.112;2023-12-20T12:33:34;5.4;;;0.6;;
82805;SDS011;72558;51.000;-3.112;2023-12-20T12:36:34;5.2;;;0.8;;
82805;SDS011;72558;51.000;-3.112;2023-12-20T12:39:33;5.1;;;0.7;;
82805;SDS011;72558;51.000;-3.112;2023-12-20T12:42:33;7.5;;;0.8;;
82805;SDS011;72558;51.000;-3.112;2023-12-20T12:45:34;7.6;;;1.2;;
82805;SDS011;72558;51.000;-3.112;2023-12-20T12:48:34;8.1;;;1.1;;
82805;SDS011;72558;51.000;-3.112;2023-12-20T12:51:34;10.2;;;1.2;;
82805;SDS011;72558;51.000;-3.112;2023-12-20T12:54:34;6.2;;;0.8;;
82805;SDS011;72558;51.000;-3.112;2023-12-20T12:57:34;8.2;;;0.7;;
82805;SDS011;72558;51.000;-3.112;2023-12-20T13:00:34;9.9;;;1.2;;
82805;SDS011;72558;51.000;-3.112;2023-12-20T13:03:34;7.5;;;1.2;;
82805;SDS011;72558;51.000;-3.112;2023-12-20T13:06:34;7.4;;;0.9;;
82805;SDS011;72558;51.000;-3.112;2023-12-20T13:09:33;11.4;;;1.6;;
82805;SDS011;72558;51.000;-3.112;2023-12-20T13:12:34;13.2;;;1.6;;
82805;SDS011;72558;51.000;-3.112;2023-12-20T13:15:33;10.0;;;1.4;;
82805;SDS011;72558;51.000;-3.112;2023-12-20T13:18:34;8.5;;;1.2;;
82805;SDS011;72558;51.000;-3.112;2023-12-20T13:21:34;10.6;;;1.2;;
82805;SDS011;72558;51.000;-3.112;2023-12-20T13:24:34;11.4;;;1.5;;
82805;SDS011;72558;51.000;-3.112;2023-12-20T13:27:34;12.7;;;1.2;;
82805;SDS011;72558;51.000;-3.112;2023-12-20T13:30:34;9.1;;;1.0;;
82805;SDS011;72558;51.000;-3.112;2023-12-20T13:33:34;11.9;;;1.2;;
82805;SDS011;72558;51.000;-3.112;2023-12-20T13:36:34;9.8;;;1.1;;
82805;SDS011;72558;51.000;-3.112;2023-12-20T13:39:34;11.7;;;1.4;;
82805;SDS011;72558;51.000;-3.112;2023-12-20T13:42:33;8.0;;;1.1;;
82805;SDS011;72558;51.000;-3.112;2023-12-20T13:45:34;10.1;;;1.4;;
82805;SDS011;72558;51.000;-3.112;2023-12-20T13:48:33;13.5;;;1.6;;
82805;SDS011;72558;51.000;-3.112;2023-12-20T13:51:34;13.8;;;1.6;;
82805;SDS011;72558;51.000;-3.112;2023-12-20T13:54:34;11.4;;;1.7;;
82805;SDS011;72558;51.000;-3.112;2023-12-20T13:57:33;11.8;;;1.6;;
82805;SDS011;72558;51.000;-3.112;2023-12-20T14:00:34;12.6;;;2.0;;
82805;SDS011;72558;51.000;-3.112;2023-12-20T14:03:33;12.5;;;1.5;;
82805;SDS011;72558;51.000;-3.112;2023-12-20T14:06:34;12.9;;;1.7;;
82805;SDS011;72558;51.000;-3.112;2023-12-20T14:09:34;13.7;;;1.8;;
82805;SDS011;72558;51.000;-3.112;2023-12-20T14:12:34;11.2;;;1.8;;
82805;SDS011;72558;51.000;-3.112;2023-12-20T14:15:33;11.5;;;1.2;;
82805;SDS011;72558;51.000;-3.112;2023-12-20T14:18:34;9.6;;;1.2;;
82805;SDS011;72558;51.000;-3.112;2023-12-20T14:21:33;11.7;;;1.6;;
82805;SDS011;72558;51.000;-3.112;2023-12-20T14:24:34;9.1;;;1.1;;
82805;SDS011;72558;51.000;-3.112;2023-12-20T14:27:34;10.4;;;1.5;;
82805;SDS011;72558;51.000;-3.112;2023-12-20T14:30:33;11.2;;;1.9;;
82805;SDS011;72558;51.000;-3.112;2023-12-20T14:33:34;8.4;;;1.3;;
82805;SDS011;72558;51.000;-3.112;2023-12-20T14:36:34;11.7;;;1.7;;
82805;SDS011;72558;51.000;-3.112;2023-12-20T14:39:34;11.3;;;1.7;;
82805;SDS011;72558;51.000;-3.112;2023-12-20T14:42:33;10.0;;;1.4;;
82805;SDS011;72558;51.000;-3.112;2023-12-20T14:45:34;8.5;;;1.5;;
82805;SDS011;72558;51.000;-3.112;2023-12-20T14:48:34;11.9;;;1.7;;
82805;SDS011;72558;51.000;-3.112;2023-12-20T14:51:34;13.0;;;1.6;;
82805;SDS011;72558;51.000;-3.112;2023-12-20T14:54:34;8.6;;;1.4;;
82805;SDS011;72558;51.000;-3.112;2023-12-20T14:57:34;12.6;;;1.5;;
82805;SDS011;72558;51.000;-3.112;2023-12-20T15:00:34;12.3;;;2.1;;
82805;SDS011;72558;51.000;-3.112;2023-12-20T15:03:33;14.3;;;2.2;;
82805;SDS011;72558;51.000;-3.112;2023-12-20T15:06:34;11.6;;;1.5;;
82805;SDS011;72558;51.000;-3.112;2023-12-20T15:09:33;10.5;;;1.8;;
82805;SDS011;72558;51.000;-3.112;2023-12-20T15:12:34;11.5;;;2.1;;
82805;SDS011;72558;51.000;-3.112;2023-12-20T15:15:33;13.6;;;1.8;;
82805;SDS011;72558;51.000;-3.112;2023-12-20T15:18:34;11.4;;;1.6;;
82805;SDS011;72558;51.000;-3.112;2023-12-20T15:21:33;16.5;;;2.1;;
82805;SDS011;72558;51.000;-3.112;2023-12-20T15:24:34;18.4;;;2.3;;
82805;SDS011;72558;51.000;-3.112;2023-12-20T15:27:34;16.1;;;2.5;;
82805;SDS011;72558;51.000;-3.112;2023-12-20T15:30:34;21.0;;;2.7;;
82805;SDS011;72558;51.000;-3.112;2023-12-20T15:33:34;17.0;;;2.6;;
82805;SDS011;72558;51.000;-3.112;2023-12-20T15:36:34;18.4;;;2.6;;
82805;SDS011;72558;51.000;-3.112;2023-12-20T15:39:34;17.9;;;3.4;;
82805;SDS011;72558;51.000;-3.112;2023-12-20T15:42:33;17.8;;;2.7;;
82805;SDS011;72558;51.000;-3.112;2023-12-20T15:45:34;18.1;;;2.9;;
82805;SDS011;72558;51.000;-3.112;2023-12-20T15:48:33;25.8;;;3.5;;
82805;SDS011;72558;51.000;-3.112;2023-12-20T15:51:34;25.9;;;4.0;;
82805;SDS011;72558;51.000;-3.112;2023-12-20T15:54:34;19.8;;;3.3;;
82805;SDS011;72558;51.000;-3.112;2023-12-20T15:57:33;20.8;;;3.5;;
82805;SDS011;72558;51.000;-3.112;2023-12-20T16:00:34;21.4;;;3.8;;
82805;SDS011;72558;51.000;-3.112;2023-12-20T16:03:33;23.8;;;3.8;;
82805;SDS011;72558;51.000;-3.112;2023-12-20T16:06:34;22.4;;;3.5;;
82805;SDS011;72558;51.000;-3.112;2023-12-20T16:09:33;24.0;;;3.4;;
82805;SDS011;72558;51.000;-3.112;2023-12-20T16:12:34;26.0;;;4.2;;
82805;SDS011;72558;51.000;-3.112;2023-12-20T16:15:33;23.9;;;3.9;;
82805;SDS011;72558;51.000;-3.112;2023-12-20T16:18:34;22.4;;;3.5;;
82805;SDS011;72558;51.000;-3.112;2023-12-20T16:21:33;21.6;;;3.3;;
82805;SDS011;72558;51.000;-3.112;2023-12-20T16:24:34;24.4;;;4.3;;
82805;SDS011;72558;51.000;-3.112;2023-12-20T16:27:33;29.9;;;4.5;;
82805;SDS011;72558;51.000;-3.112;2023-12-20T16:30:34;28.0;;;3.9;;
82805;SDS011;72558;51.000;-3.112;2023-12-20T16:33:34;27.8;;;4.2;;
82805;SDS011;72558;51.000;-3.112;2023-12-20T16:36:34;29.3;;;4.2;;
82805;SDS011;72558;51.000;-3.112;2023-12-20T16:39:34;35.6;;;5.4;;
82805;SDS011;72558;51.000;-3.112;2023-12-20T16:42:33;30.0;;;5.1;;
82805;SDS011;72558;51.000;-3.112;2023-12-20T16:45:34;26.9;;;4.6;;
82805;SDS011;72558;51.000;-3.112;2023-12-20T16:48:33;29.9;;;4.7;;
82805;SDS011;72558;51.000;-3.112;2023-12-20T16:51:34;31.2;;;4.5;;
82805;SDS011;72558;51.000;-3.112;2023-12-20T16:54:33;32.4;;;5.6;;
82805;SDS011;72558;51.000;-3.112;2023-12-20T16:57:33;38.2;;;6.1;;
82805;SDS011;72558;51.000;-3.112;2023-12-20T17:00:33;39.0;;;6.2;;
82805;SDS011;72558;51.000;-3.112;2023-12-20T17:03:34;36.9;;;6.7;;
82805;SDS011;72558;51.000;-3.112;2023-12-20T17:06:33;31.3;;;6.3;;
82805;SDS011;72558;51.000;-3.112;2023-12-20T17:09:34;34.3;;;6.1;;
82805;SDS011;72558;51.000;-3.112;2023-12-20T17:12:34;30.5;;;5.9;;
82805;SDS011;72558;51.000;-3.112;2023-12-20T17:15:34;36.2;;;5.7;;
82805;SDS011;72558;51.000;-3.112;2023-12-20T17:18:34;35.3;;;5.3;;
82805;SDS011;72558;51.000;-3.112;2023-12-20T17:21:34;30.9;;;4.9;;
82805;SDS011;72558;51.000;-3.112;2023-12-20T17:24:33;37.1;;;6.7;;
82805;SDS011;72558;51.000;-3.112;2023-12-20T17:27:34;32.8;;;5.8;;
82805;SDS011;72558;51.000;-3.112;2023-12-20T17:30:33;32.7;;;5.5;;
82805;SDS011;72558;51.000;-3.112;2023-12-20T17:33:34;33.8;;;5.6;;
82805;SDS011;72558;51.000;-3.112;2023-12-20T17:36:33;36.5;;;5.7;;
82805;SDS011;72558;51.000;-3.112;2023-12-20T17:39:34;36.1;;;5.7;;
82805;SDS011;72558;51.000;-3.112;2023-12-20T17:42:33;33.5;;;5.3;;
82805;SDS011;72558;51.000;-3.112;2023-12-20T17:45:34;34.9;;;5.6;;
82805;SDS011;72558;51.000;-3.112;2023-12-20T17:48:33;35.5;;;5.3;;
82805;SDS011;72558;51.000;-3.112;2023-12-20T17:51:34;35.3;;;5.9;;
82805;SDS011;72558;51.000;-3.112;2023-12-20T17:54:33;35.7;;;5.5;;
82805;SDS011;72558;51.000;-3.112;2023-12-20T17:57:34;35.3;;;5.4;;
82805;SDS011;72558;51.000;-3.112;2023-12-20T18:00:34;37.9;;;6.1;;
82805;SDS011;72558;51.000;-3.112;2023-12-20T18:03:33;33.1;;;5.6;;
82805;SDS011;72558;51.000;-3.112;2023-12-20T18:06:34;30.9;;;5.1;;